Berner, Minnesota
Current Conditions -  °F | °C
As of 11:55 AM on Monday 24 Nov 2014 (Local Time) from KFSE Reporting Station
Haze Haze  
Wind Chill: -11°   Ceiling: 1600
Heat Index:   Visibility: 2mi
Dew Point:   Wind: 21mph
Humidity: 79%   Direction: 330°NNW
Pressure: 29.67"   Gusts: NA
Location:  47.8469°N, 95.4815°W
Report Text: KFSE 241755Z AUTO 33018KT 2SM HZ BKN016 OVC025 M13/M16 A2967 RMK AO2
Loading
Personal Weather Stations






























Interactive Weather Map New forecast layout! Learn more

10-Day Weather Forecast

Advertisements
Track Severe Weather on mobile